CST,Max TemperatureF,Mean TemperatureF,Min TemperatureF,Max Dew PointF,MeanDew PointF,Min DewpointF,Max Humidity, Mean Humidity, Min Humidity, Max Sea Level PressureIn, Mean Sea Level PressureIn, Min Sea Level PressureIn, Max VisibilityMiles, Mean VisibilityMiles, Min VisibilityMiles, Max Wind SpeedMPH, Mean Wind SpeedMPH, Max Gust SpeedMPH,PrecipitationIn, CloudCover, Events, WindDirDegrees
2012-11-1,40,35,29,34,26,15,92,65,37,30.09,29.97,29.88,10,10,9,21,12,31,T,7,Rain-Snow,327
2012-11-2,35,29,22,24,22,19,88,75,61,30.25,30.19,30.09,10,10,10,15,5,21,0.00,0,,60
2012-11-3,38,33,28,27,25,24,85,72,59,30.31,30.26,30.19,10,10,2,15,7,17,T,7,Snow,110
2012-11-4,38,31,24,28,25,23,85,72,59,30.31,30.27,30.19,10,10,10,14,6,17,0.00,6,,89
2012-11-5,39,31,23,34,28,24,92,76,59,30.29,30.15,29.88,10,8,2,14,7,17,T,6,Rain-Snow,121
2012-11-6,41,38,34,36,33,32,96,91,85,29.97,29.79,29.69,10,6,1,16,7,21,0.25,8,Rain-Snow,239
2012-11-7,40,38,35,36,34,32,92,86,79,30.10,30.04,29.92,10,8,1,10,6,14,T,8,Rain,289
2012-11-8,50,42,34,36,34,31,89,71,52,30.09,30.00,29.91,10,10,10,20,9,23,0.01,6,Rain,267
2012-11-9,40,37,34,36,32,30,92,84,76,30.18,30.14,30.06,10,10,8,25,13,37,T,8,,58
2012-11-10,46,40,34,45,38,30,100,91,82,30.11,29.75,29.49,10,3,0,30,19,44,0.27,8,Fog-Rain,90
2012-11-11,50,36,22,48,35,14,93,82,71,29.83,29.61,29.46,10,6,0,22,14,31,0.23,8,Fog-Rain-Snow-Thunderstorm,236
2012-11-12,24,22,19,18,14,10,77,72,67,30.23,29.91,29.76,10,6,2,22,15,32,T,8,Snow,261
2012-11-13,35,27,18,23,18,15,92,72,51,30.36,30.31,30.17,10,10,10,17,8,20,0.00,5,,223
2012-11-14,43,37,31,29,27,23,92,73,53,30.30,30.23,30.15,10,10,9,13,7,15,0.00,4,,177
2012-11-15,43,33,23,31,19,6,82,54,25,30.51,30.28,30.12,10,10,7,22,10,28,0.00,1,,293
2012-11-16,38,26,14,26,19,10,85,67,48,30.54,30.47,30.36,10,10,10,13,6,16,0.00,0,,129
2012-11-17,53,42,30,39,32,23,85,65,45,30.36,30.27,30.23,10,10,8,18,10,23,0.02,3,Rain,170
2012-11-18,53,46,38,38,32,30,76,60,44,30.22,30.15,30.09,10,10,8,15,9,21,T,4,,145
2012-11-19,53,45,37,36,34,31,85,69,52,30.10,30.07,30.03,10,10,10,14,6,16,0.00,3,,187
2012-11-20,47,38,28,32,29,26,100,77,53,30.18,30.11,30.03,10,3,0,15,5,17,0.00,3,Fog,20
2012-11-21,51,41,31,36,33,29,96,76,56,30.04,29.92,29.68,10,6,1,13,6,15,0.00,1,Fog,147
2012-11-22,52,39,25,41,30,21,92,77,61,29.78,29.67,29.58,10,5,0,23,12,31,0.22,5,Fog-Rain-Snow,280
2012-11-23,26,19,12,21,13,6,88,75,62,30.36,30.12,29.80,9,4,0,31,17,41,0.11,8,Snow,322
2012-11-24,20,10,0,16,10,-3,87,77,67,30.33,30.03,29.76,10,7,1,15,7,18,0.13,5,Snow,191
2012-11-25,24,17,9,19,15,2,92,80,67,30.18,29.93,29.82,10,7,0,21,12,28,T,8,Snow,294
2012-11-26,16,9,2,8,2,-3,87,73,58,30.39,30.33,30.19,10,10,9,17,10,23,T,3,Snow,282
2012-11-27,26,21,15,20,15,9,84,79,73,30.27,30.11,30.02,10,4,0,17,11,22,0.09,8,Fog-Snow,261
2012-11-28,26,21,15,20,15,9,81,75,68,30.31,30.21,30.12,10,9,6,16,11,24,T,5,Snow,268
2012-11-29,28,23,18,25,20,17,92,87,81,30.28,30.20,30.06,10,8,3,22,11,29,T,7,Snow,65
2012-11-30,30,29,27,28,24,21,92,85,78,30.28,30.20,30.04,10,9,4,22,13,28,T,8,,110